Time;durP1;ratioP1;P1;durP2;ratioP2;P2;SDS_P1;SDS_P2;PMS_P1;PMS_P2;Temp;Humidity;BMP_temperature;BMP_pressure;BME280_temperature;BME280_humidity;BME280_pressure;Samples;Min_cycle;Max_cycle;Signal;HPM_P1;HPM_P2
2023/03/26 00:01:12;;;;;;;7.40;2.53;;;;;;;;;;5110058;28;20862;-71
2023/03/26 00:03:40;;;;;;;7.97;2.00;;;;;;;;;;5118913;28;20449;-70
2023/03/26 00:06:18;;;;;;;4.30;2.00;;;;;;;;;;5106093;28;20482;-71
2023/03/26 00:08:48;;;;;;;5.97;1.57;;;;;;;;;;5107956;28;20446;-71
2023/03/26 00:11:17;;;;;;;9.50;3.00;;;;;;;;;;5106683;28;20549;-71
2023/03/26 00:13:45;;;;;;;4.60;1.77;;;;;;;;;;5107604;28;20522;-71
2023/03/26 00:16:15;;;;;;;8.40;1.73;;;;;;;;;;5108035;28;20546;-71
2023/03/26 00:18:43;;;;;;;5.97;1.87;;;;;;;;;;5110221;28;20515;-71
2023/03/26 00:21:13;;;;;;;7.53;1.80;;;;;;;;;;5111884;28;20517;-70
2023/03/26 00:23:44;;;;;;;7.83;1.60;;;;;;;;;;5108991;28;20444;-71
2023/03/26 00:26:12;;;;;;;6.00;2.00;;;;;;;;;;5110222;28;20540;-70
2023/03/26 00:28:41;;;;;;;13.90;1.90;;;;;;;;;;5106007;28;20451;-70
2023/03/26 00:31:10;;;;;;;6.27;1.43;;;;;;;;;;5110419;28;20540;-70
2023/03/26 00:33:39;;;;;;;8.07;1.90;;;;;;;;;;5108283;28;20446;-70
2023/03/26 00:36:08;;;;;;;2.23;1.40;;;;;;;;;;5106866;28;20447;-70
2023/03/26 00:38:38;;;;;;;6.63;2.03;;;;;;;;;;5107916;28;20455;-70
2023/03/26 00:41:07;;;;;;;6.60;1.93;;;;;;;;;;5104970;28;20906;-71
2023/03/26 00:43:41;;;;;;;7.83;1.87;;;;;;;;;;5111016;28;20442;-72
2023/03/26 00:46:10;;;;;;;3.80;2.23;;;;;;;;;;5104185;28;20483;-72
2023/03/26 00:48:41;;;;;;;16.47;2.27;;;;;;;;;;5103200;28;20513;-71
2023/03/26 00:51:09;;;;;;;5.93;1.83;;;;;;;;;;5106070;28;20556;-71
2023/03/26 00:53:46;;;;;;;4.40;1.73;;;;;;;;;;5101665;28;20447;-71
2023/03/26 00:56:14;;;;;;;8.43;2.27;;;;;;;;;;5103328;28;20477;-72
2023/03/26 00:58:43;;;;;;;8.93;2.40;;;;;;;;;;5112123;28;21076;-72
2023/03/26 01:01:13;;;;;;;9.57;2.30;;;;;;;;;;5110127;28;20451;-72
2023/03/26 01:03:41;;;;;;;9.00;2.10;;;;;;;;;;5097609;28;20440;-72
2023/03/26 01:06:12;;;;;;;10.27;2.13;;;;;;;;;;5108016;28;20486;-70
2023/03/26 01:08:45;;;;;;;10.80;2.27;;;;;;;;;;5103918;28;20225;-71
2023/03/26 01:11:14;;;;;;;5.30;1.73;;;;;;;;;;5103190;28;20456;-71
2023/03/26 01:13:44;;;;;;;5.87;1.87;;;;;;;;;;5107366;28;20475;-70
2023/03/26 01:16:19;;;;;;;10.13;2.03;;;;;;;;;;5104409;27;20469;-70
2023/03/26 01:18:51;;;;;;;7.50;1.73;;;;;;;;;;5097502;28;20863;-72
2023/03/26 01:21:28;;;;;;;6.83;1.90;;;;;;;;;;5100337;28;20473;-72
2023/03/26 01:23:59;;;;;;;10.53;1.87;;;;;;;;;;5100046;28;20522;-72
2023/03/26 01:26:39;;;;;;;2.57;1.07;;;;;;;;;;5102919;28;20548;-72
2023/03/26 01:29:09;;;;;;;3.60;1.80;;;;;;;;;;5099406;28;20448;-71
2023/03/26 01:31:40;;;;;;;6.90;1.70;;;;;;;;;;5099971;28;20266;-71
2023/03/26 01:34:12;;;;;;;6.23;1.67;;;;;;;;;;5110730;28;20450;-70
2023/03/26 01:36:47;;;;;;;6.70;1.00;;;;;;;;;;5108708;28;20511;-70
2023/03/26 01:39:24;;;;;;;4.93;1.60;;;;;;;;;;5109187;28;20908;-71
2023/03/26 01:41:54;;;;;;;3.45;1.55;;;;;;;;;;5108603;28;20549;-71
2023/03/26 01:44:31;;;;;;;2.95;1.13;;;;;;;;;;5110345;28;20194;-71
2023/03/26 01:47:00;;;;;;;4.60;1.50;;;;;;;;;;5108788;28;20220;-72
2023/03/26 01:49:28;;;;;;;5.10;1.70;;;;;;;;;;5111441;28;20451;-73
2023/03/26 01:51:57;;;;;;;7.13;1.50;;;;;;;;;;5119616;28;20465;-71
2023/03/26 01:54:38;;;;;;;5.07;1.00;;;;;;;;;;5109316;28;20658;-72
2023/03/26 01:57:11;;;;;;;5.33;1.67;;;;;;;;;;5107509;28;20447;-71
2023/03/26 01:59:50;;;;;;;2.07;1.33;;;;;;;;;;5109743;28;20434;-72
2023/03/26 02:02:24;;;;;;;8.80;1.60;;;;;;;;;;5101357;28;20447;-70
2023/03/26 02:04:53;;;;;;;4.40;1.37;;;;;;;;;;5103749;28;20473;-71
2023/03/26 02:07:24;;;;;;;8.60;1.45;;;;;;;;;;5096742;28;20558;-70
2023/03/26 02:09:56;;;;;;;8.30;1.33;;;;;;;;;;5110220;28;20276;-71
2023/03/26 02:12:25;;;;;;;2.80;1.20;;;;;;;;;;5106796;28;20193;-70
2023/03/26 02:14:55;;;;;;;2.23;1.13;;;;;;;;;;5104674;28;20528;-71
2023/03/26 02:17:23;;;;;;;3.93;1.13;;;;;;;;;;5096756;28;20517;-71
2023/03/26 02:19:53;;;;;;;3.20;1.10;;;;;;;;;;5100723;28;20712;-71
2023/03/26 02:22:21;;;;;;;4.80;1.23;;;;;;;;;;5108976;28;20459;-71
2023/03/26 02:24:49;;;;;;;3.60;0.97;;;;;;;;;;5117554;28;20689;-71
2023/03/26 02:27:20;;;;;;;2.10;1.10;;;;;;;;;;5116468;28;20494;-71
2023/03/26 02:29:49;;;;;;;9.30;2.20;;;;;;;;;;5116877;28;20211;-71
2023/03/26 02:32:18;;;;;;;7.17;1.13;;;;;;;;;;5118067;28;20459;-73
2023/03/26 02:34:46;;;;;;;5.97;1.77;;;;;;;;;;5117185;28;20446;-71
2023/03/26 02:37:17;;;;;;;7.43;3.07;;;;;;;;;;5116143;28;20447;-71
2023/03/26 02:39:46;;;;;;;4.00;1.20;;;;;;;;;;5116787;28;20457;-71
2023/03/26 02:42:15;;;;;;;4.20;1.23;;;;;;;;;;5117065;28;20565;-71
2023/03/26 02:44:45;;;;;;;8.07;1.40;;;;;;;;;;5117328;28;20733;-71
2023/03/26 02:47:14;;;;;;;3.60;1.17;;;;;;;;;;5118105;28;21375;-71
2023/03/26 02:49:42;;;;;;;5.05;1.23;;;;;;;;;;5118998;28;20489;-71
2023/03/26 02:52:09;;;;;;;2.63;0.97;;;;;;;;;;5119332;28;20261;-70
2023/03/26 02:54:37;;;;;;;7.33;1.93;;;;;;;;;;5117870;28;20443;-70
2023/03/26 02:57:05;;;;;;;8.13;1.50;;;;;;;;;;5118139;28;20484;-70
2023/03/26 02:59:33;;;;;;;5.23;1.57;;;;;;;;;;5117243;28;20201;-70
2023/03/26 03:02:03;;;;;;;8.50;1.57;;;;;;;;;;5117706;28;20698;-70
2023/03/26 03:04:31;;;;;;;5.57;1.83;;;;;;;;;;5115619;28;20838;-70
2023/03/26 03:06:59;;;;;;;6.93;1.57;;;;;;;;;;5116589;28;20518;-70
2023/03/26 03:09:27;;;;;;;5.80;1.73;;;;;;;;;;5116001;28;21036;-70
2023/03/26 03:11:55;;;;;;;4.03;1.60;;;;;;;;;;5117781;28;20562;-70
2023/03/26 03:14:23;;;;;;;4.73;1.40;;;;;;;;;;5109844;28;20464;-70
2023/03/26 03:16:52;;;;;;;11.20;2.37;;;;;;;;;;5097676;28;20467;-70
2023/03/26 03:19:22;;;;;;;8.10;2.17;;;;;;;;;;5099161;28;20491;-70
2023/03/26 03:21:50;;;;;;;4.17;1.60;;;;;;;;;;5100407;28;20439;-71
2023/03/26 03:24:18;;;;;;;11.77;1.57;;;;;;;;;;5099924;28;20460;-71
2023/03/26 03:26:58;;;;;;;6.37;1.60;;;;;;;;;;5100537;28;20573;-71
2023/03/26 03:29:27;;;;;;;10.65;1.63;;;;;;;;;;5100099;28;20492;-71
2023/03/26 03:31:54;;;;;;;6.13;1.50;;;;;;;;;;5101470;28;20198;-71
2023/03/26 03:34:25;;;;;;;5.03;1.48;;;;;;;;;;5101617;28;20452;-71
2023/03/26 03:36:54;;;;;;;8.07;1.15;;;;;;;;;;5101623;28;20202;-71
2023/03/26 03:39:22;;;;;;;5.23;1.93;;;;;;;;;;5106159;28;20185;-71
2023/03/26 03:41:50;;;;;;;4.78;1.35;;;;;;;;;;5120822;28;20442;-71
2023/03/26 03:44:18;;;;;;;10.60;2.38;;;;;;;;;;5121131;28;20296;-71
2023/03/26 03:46:47;;;;;;;9.80;1.57;;;;;;;;;;5119316;28;20229;-71
2023/03/26 03:49:15;;;;;;;5.73;1.80;;;;;;;;;;5119645;28;20502;-71
2023/03/26 03:51:45;;;;;;;11.87;2.07;;;;;;;;;;5119522;28;20503;-71
2023/03/26 03:54:13;;;;;;;5.10;1.83;;;;;;;;;;5119388;28;20458;-71
2023/03/26 03:56:41;;;;;;;4.93;1.55;;;;;;;;;;5118707;28;20462;-71
2023/03/26 03:59:09;;;;;;;2.30;1.13;;;;;;;;;;5120830;28;20495;-71
2023/03/26 04:01:37;;;;;;;6.03;1.30;;;;;;;;;;5121538;28;20458;-72
2023/03/26 04:04:05;;;;;;;4.40;1.37;;;;;;;;;;5110270;28;20456;-71
2023/03/26 04:06:33;;;;;;;4.47;1.58;;;;;;;;;;5101215;28;20736;-72
2023/03/26 04:09:02;;;;;;;4.90;0.97;;;;;;;;;;5104467;28;20202;-71
2023/03/26 04:11:30;;;;;;;4.40;1.73;;;;;;;;;;5101047;28;20494;-72
2023/03/26 04:13:58;;;;;;;6.18;1.58;;;;;;;;;;5099851;28;20446;-72
2023/03/26 04:16:26;;;;;;;5.45;1.92;;;;;;;;;;5104210;28;20190;-72
2023/03/26 04:18:56;;;;;;;3.50;1.30;;;;;;;;;;5098933;28;20202;-72
2023/03/26 04:21:25;;;;;;;6.47;1.40;;;;;;;;;;5104819;28;20460;-72
2023/03/26 04:23:57;;;;;;;3.85;1.40;;;;;;;;;;5099285;28;20483;-72
2023/03/26 04:26:29;;;;;;;3.00;1.30;;;;;;;;;;5102198;28;20229;-71
2023/03/26 04:29:02;;;;;;;4.32;1.60;;;;;;;;;;5102321;28;20934;-72
2023/03/26 04:31:32;;;;;;;6.60;1.70;;;;;;;;;;5120265;28;20205;-71
2023/03/26 04:34:04;;;;;;;6.20;2.10;;;;;;;;;;5110446;28;20459;-71
2023/03/26 04:36:33;;;;;;;5.30;1.20;;;;;;;;;;5099281;28;20462;-71
2023/03/26 04:39:06;;;;;;;3.70;1.20;;;;;;;;;;5109385;28;20449;-71
2023/03/26 04:41:36;;;;;;;2.78;1.35;;;;;;;;;;5119882;28;21060;-71
2023/03/26 04:44:04;;;;;;;3.77;1.20;;;;;;;;;;5117005;28;20197;-71
2023/03/26 04:46:33;;;;;;;8.03;1.43;;;;;;;;;;5117964;28;20557;-71
2023/03/26 04:49:02;;;;;;;7.90;1.73;;;;;;;;;;5118512;27;20493;-71
2023/03/26 04:51:36;;;;;;;4.90;1.73;;;;;;;;;;5100708;28;20882;-71
2023/03/26 04:54:06;;;;;;;12.07;2.50;;;;;;;;;;5100481;28;20288;-71
2023/03/26 04:56:42;;;;;;;10.03;2.23;;;;;;;;;;5100164;28;20705;-70
2023/03/26 04:59:12;;;;;;;8.18;2.03;;;;;;;;;;5100486;28;20470;-72
2023/03/26 05:01:40;;;;;;;10.97;1.50;;;;;;;;;;5100077;28;20209;-71
2023/03/26 05:04:08;;;;;;;6.97;1.60;;;;;;;;;;5098266;28;20454;-71
2023/03/26 05:06:36;;;;;;;14.23;1.67;;;;;;;;;;5098934;28;20232;-72
2023/03/26 05:09:05;;;;;;;8.40;1.43;;;;;;;;;;5117685;28;20482;-71
2023/03/26 05:11:36;;;;;;;10.93;1.93;;;;;;;;;;5117049;28;20455;-72
2023/03/26 05:14:07;;;;;;;8.30;3.80;;;;;;;;;;5108147;28;20441;-72
2023/03/26 05:16:35;;;;;;;11.75;3.30;;;;;;;;;;5110137;28;20455;-72
2023/03/26 05:19:03;;;;;;;14.73;1.77;;;;;;;;;;5112682;28;20203;-72
2023/03/26 05:21:31;;;;;;;3.28;1.40;;;;;;;;;;5117989;28;20524;-71
2023/03/26 05:24:00;;;;;;;9.03;2.20;;;;;;;;;;5096172;28;20208;-72
2023/03/26 05:26:38;;;;;;;7.57;1.40;;;;;;;;;;5096728;28;20541;-72
2023/03/26 05:29:07;;;;;;;7.43;1.77;;;;;;;;;;5096130;28;20887;-72
2023/03/26 05:31:39;;;;;;;8.53;2.07;;;;;;;;;;5097129;28;21110;-72
2023/03/26 05:34:07;;;;;;;8.80;1.67;;;;;;;;;;5095486;28;20447;-71
2023/03/26 05:36:36;;;;;;;12.87;2.10;;;;;;;;;;5097415;28;20456;-72
2023/03/26 05:39:05;;;;;;;6.23;2.00;;;;;;;;;;5110925;28;20455;-71
2023/03/26 05:41:32;;;;;;;9.97;1.97;;;;;;;;;;5116562;28;20495;-72
2023/03/26 05:44:00;;;;;;;5.87;1.93;;;;;;;;;;5101144;28;20440;-72
2023/03/26 05:46:30;;;;;;;4.60;1.57;;;;;;;;;;5097128;28;20440;-72
2023/03/26 05:48:58;;;;;;;6.00;2.10;;;;;;;;;;5097698;28;20566;-72
2023/03/26 05:51:26;;;;;;;11.20;2.20;;;;;;;;;;5097212;28;20463;-72
2023/03/26 05:53:54;;;;;;;3.60;1.73;;;;;;;;;;5096262;28;20463;-72
2023/03/26 05:56:22;;;;;;;7.80;1.35;;;;;;;;;;5098261;28;20848;-72
2023/03/26 05:58:50;;;;;;;4.10;1.60;;;;;;;;;;5098136;28;20197;-72
2023/03/26 06:01:18;;;;;;;8.50;2.10;;;;;;;;;;5098442;28;20537;-72
2023/03/26 06:03:47;;;;;;;6.10;2.05;;;;;;;;;;5104239;28;20471;-72
2023/03/26 06:06:17;;;;;;;9.07;1.73;;;;;;;;;;5116591;28;20209;-71
2023/03/26 06:08:47;;;;;;;8.00;1.88;;;;;;;;;;5108026;28;20603;-72
2023/03/26 06:11:29;;;;;;;7.30;2.13;;;;;;;;;;5117981;28;20652;-72
2023/03/26 06:13:58;;;;;;;6.27;1.77;;;;;;;;;;5116669;28;20503;-73
2023/03/26 06:16:27;;;;;;;12.80;2.30;;;;;;;;;;5116562;28;20542;-72
2023/03/26 06:18:57;;;;;;;7.20;1.20;;;;;;;;;;5114080;28;20458;-72
2023/03/26 06:21:27;;;;;;;5.13;1.53;;;;;;;;;;5117198;28;20446;-72
2023/03/26 06:23:55;;;;;;;9.80;2.17;;;;;;;;;;5117749;28;20454;-71
2023/03/26 06:26:23;;;;;;;10.63;2.03;;;;;;;;;;5118058;28;20450;-71
2023/03/26 06:28:51;;;;;;;4.50;1.17;;;;;;;;;;5117179;28;20486;-71
2023/03/26 06:31:19;;;;;;;8.20;2.27;;;;;;;;;;5117952;28;20465;-71
2023/03/26 06:33:47;;;;;;;5.30;1.80;;;;;;;;;;5117747;28;20461;-71
2023/03/26 06:36:29;;;;;;;13.80;2.40;;;;;;;;;;5118136;28;20463;-71
2023/03/26 06:38:56;;;;;;;5.60;1.77;;;;;;;;;;5109636;28;20464;-71
2023/03/26 06:41:24;;;;;;;8.20;2.00;;;;;;;;;;5096988;28;20455;-71
2023/03/26 06:43:53;;;;;;;3.93;1.00;;;;;;;;;;5114138;28;20893;-71
2023/03/26 06:46:22;;;;;;;6.17;1.43;;;;;;;;;;5116808;28;20511;-71
2023/03/26 06:48:50;;;;;;;10.33;1.73;;;;;;;;;;5098302;28;20640;-70
2023/03/26 06:51:18;;;;;;;4.33;1.50;;;;;;;;;;5097543;28;20467;-72
2023/03/26 06:53:48;;;;;;;4.83;1.23;;;;;;;;;;5105575;28;20894;-72
2023/03/26 06:56:16;;;;;;;4.30;1.20;;;;;;;;;;5116153;28;20455;-72
2023/03/26 06:58:44;;;;;;;5.00;1.90;;;;;;;;;;5107268;28;20460;-72
2023/03/26 07:01:14;;;;;;;5.50;1.53;;;;;;;;;;5113695;28;20473;-72
2023/03/26 07:03:49;;;;;;;6.57;1.80;;;;;;;;;;5114820;28;20882;-72
2023/03/26 07:06:17;;;;;;;8.82;1.48;;;;;;;;;;5110187;28;20500;-72
2023/03/26 07:08:45;;;;;;;6.93;1.25;;;;;;;;;;5109650;28;20236;-73
2023/03/26 07:11:15;;;;;;;6.23;1.20;;;;;;;;;;5114889;28;20280;-72
2023/03/26 07:13:44;;;;;;;10.33;2.10;;;;;;;;;;5116194;28;20459;-71
2023/03/26 07:16:12;;;;;;;9.38;1.73;;;;;;;;;;5116222;28;21062;-72
2023/03/26 07:18:42;;;;;;;7.53;1.50;;;;;;;;;;5113226;28;20200;-73
2023/03/26 07:21:11;;;;;;;6.10;2.23;;;;;;;;;;5114787;28;20454;-71
2023/03/26 07:23:40;;;;;;;8.53;1.63;;;;;;;;;;5115235;28;20555;-71
2023/03/26 07:26:20;;;;;;;7.83;2.30;;;;;;;;;;5114941;28;20442;-72
2023/03/26 07:28:53;;;;;;;5.93;1.57;;;;;;;;;;5107851;28;20475;-71
2023/03/26 07:31:29;;;;;;;5.90;1.60;;;;;;;;;;5106710;28;20479;-71
2023/03/26 07:34:02;;;;;;;5.90;1.80;;;;;;;;;;5108069;28;20427;-71
2023/03/26 07:36:39;;;;;;;8.13;1.50;;;;;;;;;;5106032;28;20448;-71
2023/03/26 07:39:16;;;;;;;5.57;1.80;;;;;;;;;;5104717;28;20436;-72
2023/03/26 07:41:53;;;;;;;9.63;5.00;;;;;;;;;;5100885;28;20544;-72
2023/03/26 07:44:34;;;;;;;4.75;1.40;;;;;;;;;;5101899;28;20722;-71
2023/03/26 07:47:20;;;;;;;9.10;1.80;;;;;;;;;;5104650;28;20857;-72
2023/03/26 07:49:49;;;;;;;6.93;1.50;;;;;;;;;;5101659;28;20257;-72
2023/03/26 07:52:20;;;;;;;5.80;1.20;;;;;;;;;;5102766;28;20439;-72
2023/03/26 07:54:53;;;;;;;6.77;1.53;;;;;;;;;;5104986;28;20464;-72
2023/03/26 07:57:30;;;;;;;7.60;2.00;;;;;;;;;;5102909;28;20464;-72
2023/03/26 08:00:09;;;;;;;6.80;2.10;;;;;;;;;;5101741;28;20451;-72
2023/03/26 08:05:29;;;;;;;6.63;1.80;;;;;;;;;;5102879;28;20800;-72
2023/03/26 08:08:01;;;;;;;5.20;1.53;;;;;;;;;;5111875;28;20443;-73
2023/03/26 08:10:36;;;;;;;6.17;2.17;;;;;;;;;;5112446;28;20464;-73
2023/03/26 08:13:11;;;;;;;11.20;2.10;;;;;;;;;;5096142;28;20458;-73
2023/03/26 08:15:43;;;;;;;9.60;1.73;;;;;;;;;;5106282;28;20457;-73
2023/03/26 08:18:26;;;;;;;12.32;1.85;;;;;;;;;;5117035;28;20548;-72
2023/03/26 08:20:57;;;;;;;8.30;1.80;;;;;;;;;;5116271;28;20197;-73
2023/03/26 08:23:29;;;;;;;5.50;1.73;;;;;;;;;;5110228;28;20455;-72
2023/03/26 08:26:01;;;;;;;8.10;1.87;;;;;;;;;;5098785;28;21133;-72
2023/03/26 08:28:42;;;;;;;7.37;2.20;;;;;;;;;;5105720;28;20480;-72
2023/03/26 08:31:12;;;;;;;4.67;1.50;;;;;;;;;;5111800;28;20498;-72
2023/03/26 08:33:45;;;;;;;6.73;2.93;;;;;;;;;;5112279;28;20462;-72
2023/03/26 08:36:13;;;;;;;4.33;1.43;;;;;;;;;;5114280;28;20523;-72
2023/03/26 08:38:41;;;;;;;8.63;1.70;;;;;;;;;;5102314;28;20914;-72
2023/03/26 08:41:25;;;;;;;9.73;1.10;;;;;;;;;;5115123;28;20545;-72
2023/03/26 08:44:12;;;;;;;10.53;2.40;;;;;;;;;;5103962;28;20725;-72
2023/03/26 08:47:02;;;;;;;10.30;1.83;;;;;;;;;;5097432;28;20444;-73
2023/03/26 08:49:47;;;;;;;9.40;1.90;;;;;;;;;;5105107;27;20480;-73
2023/03/26 08:52:30;;;;;;;5.85;1.45;;;;;;;;;;5096553;28;20890;-73
2023/03/26 08:55:20;;;;;;;5.47;1.60;;;;;;;;;;5097704;28;20701;-72
2023/03/26 08:58:11;;;;;;;6.40;1.83;;;;;;;;;;5106272;28;20452;-73
2023/03/26 09:01:04;;;;;;;7.27;1.90;;;;;;;;;;5109707;28;20452;-73
2023/03/26 09:03:49;;;;;;;7.20;1.80;;;;;;;;;;5096403;28;20458;-72
2023/03/26 09:06:34;;;;;;;11.20;1.77;;;;;;;;;;5096220;28;20510;-71
2023/03/26 09:09:29;;;;;;;7.40;2.00;;;;;;;;;;5095468;28;20510;-71
2023/03/26 09:12:06;;;;;;;6.70;1.93;;;;;;;;;;5081998;28;20441;-72
2023/03/26 09:14:52;;;;;;;6.07;1.47;;;;;;;;;;5098658;28;20883;-72
2023/03/26 09:17:36;;;;;;;3.30;1.20;;;;;;;;;;5095500;28;20667;-73
2023/03/26 09:20:35;;;;;;;9.70;1.80;;;;;;;;;;5102233;28;20501;-73
2023/03/26 09:23:24;;;;;;;6.83;2.13;;;;;;;;;;5095376;28;20444;-72
2023/03/26 09:26:01;;;;;;;7.73;1.70;;;;;;;;;;5091101;28;20467;-72
2023/03/26 09:28:43;;;;;;;4.37;1.27;;;;;;;;;;5096923;28;20462;-72
2023/03/26 09:31:28;;;;;;;7.50;4.00;;;;;;;;;;5095384;28;20459;-73
2023/03/26 09:34:08;;;;;;;9.20;3.67;;;;;;;;;;5097775;28;20430;-71
2023/03/26 09:36:57;;;;;;;5.57;1.50;;;;;;;;;;5100636;28;20536;-72
2023/03/26 09:39:48;;;;;;;7.83;2.10;;;;;;;;;;5105533;28;20518;-72
2023/03/26 09:42:27;;;;;;;4.95;1.63;;;;;;;;;;5105062;28;20505;-72
2023/03/26 09:45:21;;;;;;;5.57;1.63;;;;;;;;;;5107151;28;20205;-73
2023/03/26 09:48:07;;;;;;;9.77;1.97;;;;;;;;;;5095137;28;20460;-71
2023/03/26 09:50:52;;;;;;;9.38;1.65;;;;;;;;;;5096963;28;20570;-71
2023/03/26 09:53:41;;;;;;;4.82;1.77;;;;;;;;;;5092280;28;20197;-71
2023/03/26 09:56:17;;;;;;;8.10;2.10;;;;;;;;;;5092332;28;20204;-72
2023/03/26 09:59:08;;;;;;;7.60;1.70;;;;;;;;;;5112524;28;20455;-71
2023/03/26 10:01:45;;;;;;;10.90;3.42;;;;;;;;;;5114473;28;20208;-71
2023/03/26 10:04:36;;;;;;;7.83;1.90;;;;;;;;;;5111951;28;20254;-71
2023/03/26 10:07:23;;;;;;;11.13;1.90;;;;;;;;;;5113516;28;20979;-70
2023/03/26 10:09:55;;;;;;;6.80;1.73;;;;;;;;;;5113130;28;20482;-72
2023/03/26 10:12:28;;;;;;;9.53;1.60;;;;;;;;;;5114960;28;20490;-72
2023/03/26 10:15:05;;;;;;;9.73;2.10;;;;;;;;;;5115411;28;20762;-73
2023/03/26 10:17:41;;;;;;;15.07;2.53;;;;;;;;;;5104028;28;20439;-72
2023/03/26 10:20:37;;;;;;;9.07;1.87;;;;;;;;;;5103661;28;20439;-73
2023/03/26 10:23:26;;;;;;;6.60;1.80;;;;;;;;;;5109381;28;20447;-70
2023/03/26 10:25:59;;;;;;;7.13;1.97;;;;;;;;;;5106762;28;20772;-71
2023/03/26 10:28:41;;;;;;;6.17;1.40;;;;;;;;;;5097804;28;20460;-71
2023/03/26 10:31:33;;;;;;;6.70;1.50;;;;;;;;;;5103652;28;20448;-73
2023/03/26 10:34:06;;;;;;;4.68;1.17;;;;;;;;;;5102380;22;20482;-81
2023/03/26 10:36:36;;;;;;;11.17;1.53;;;;;;;;;;5050270;28;20204;-81
2023/03/26 10:39:22;;;;;;;7.97;1.27;;;;;;;;;;5046523;28;20485;-81
2023/03/26 10:41:52;;;;;;;10.30;1.80;;;;;;;;;;5048722;28;20223;-81
2023/03/26 10:44:26;;;;;;;3.83;2.03;;;;;;;;;;5044517;28;20477;-82
2023/03/26 10:47:02;;;;;;;7.33;1.33;;;;;;;;;;5046253;28;20485;-82
2023/03/26 10:49:47;;;;;;;7.43;1.50;;;;;;;;;;5047294;28;20513;-79
2023/03/26 10:52:17;;;;;;;7.80;2.40;;;;;;;;;;5033063;28;20462;-81
2023/03/26 10:54:50;;;;;;;6.27;2.40;;;;;;;;;;5043555;28;20573;-80
2023/03/26 10:57:24;;;;;;;11.03;2.83;;;;;;;;;;5047110;28;20434;-81
2023/03/26 11:25:39;;;;;;;6.27;2.67;;;;;;;;;;3357506;26;20896;-72
2023/03/26 11:28:17;;;;;;;3.93;1.30;;;;;;;;;;5049099;28;20876;-71
2023/03/26 11:31:01;;;;;;;5.70;2.90;;;;;;;;;;5051146;28;20493;-73
2023/03/26 11:33:36;;;;;;;9.48;2.35;;;;;;;;;;5048931;28;20207;-71
2023/03/26 11:36:10;;;;;;;5.97;1.20;;;;;;;;;;5042313;28;20206;-72
2023/03/26 11:38:56;;;;;;;5.10;1.80;;;;;;;;;;5041844;28;20447;-72
2023/03/26 11:41:25;;;;;;;17.00;2.67;;;;;;;;;;5038047;28;20734;-73
2023/03/26 11:43:54;;;;;;;7.00;2.20;;;;;;;;;;5054187;28;20955;-72
2023/03/26 11:46:30;;;;;;;9.13;2.13;;;;;;;;;;5052858;28;20461;-72
2023/03/26 11:49:10;;;;;;;8.30;1.83;;;;;;;;;;5053498;28;20709;-72
2023/03/26 11:51:50;;;;;;;16.40;4.00;;;;;;;;;;5042102;28;20515;-72
2023/03/26 11:54:19;;;;;;;7.37;1.70;;;;;;;;;;5035730;28;20454;-72
2023/03/26 11:56:53;;;;;;;7.07;2.10;;;;;;;;;;5033370;28;20446;-72
2023/03/26 11:59:26;;;;;;;15.70;3.63;;;;;;;;;;5039319;28;20737;-72
2023/03/26 12:05:38;;;;;;;12.50;3.30;;;;;;;;;;5052483;28;20433;-73
2023/03/26 12:08:25;;;;;;;5.70;1.63;;;;;;;;;;5044022;28;20441;-72
2023/03/26 12:11:19;;;;;;;6.00;2.10;;;;;;;;;;5039772;28;20383;-73
2023/03/26 12:13:59;;;;;;;9.97;2.73;;;;;;;;;;5041039;28;20477;-72
2023/03/26 12:16:46;;;;;;;8.77;1.90;;;;;;;;;;5057480;28;20460;-73
2023/03/26 12:19:37;;;;;;;7.97;1.80;;;;;;;;;;5057289;28;20449;-73
2023/03/26 12:25:13;;;;;;;13.67;2.67;;;;;;;;;;5049030;28;20217;-74
2023/03/26 12:28:02;;;;;;;7.87;1.93;;;;;;;;;;5052255;28;20503;-71
2023/03/26 12:30:43;;;;;;;7.33;1.90;;;;;;;;;;5070341;28;21107;-73
2023/03/26 12:33:27;;;;;;;5.93;2.20;;;;;;;;;;5066684;28;20459;-72
2023/03/26 12:36:29;;;;;;;13.07;2.17;;;;;;;;;;5051215;28;20457;-72
2023/03/26 12:39:26;;;;;;;7.23;2.70;;;;;;;;;;5058025;28;20197;-72
2023/03/26 12:48:05;;;;;;;9.43;3.40;;;;;;;;;;4983062;28;20526;-72
2023/03/26 12:50:55;;;;;;;13.00;2.13;;;;;;;;;;4982360;28;20495;-72
2023/03/26 12:53:34;;;;;;;7.70;2.40;;;;;;;;;;5044111;28;20461;-73
2023/03/26 12:56:16;;;;;;;11.57;2.33;;;;;;;;;;5071657;28;20483;-70
2023/03/26 12:59:02;;;;;;;9.27;2.00;;;;;;;;;;5071783;28;20205;-73
2023/03/26 13:01:51;;;;;;;11.63;2.80;;;;;;;;;;5060388;28;20452;-72
2023/03/26 13:04:39;;;;;;;10.07;2.30;;;;;;;;;;5075408;28;20453;-72
2023/03/26 13:07:17;;;;;;;11.60;2.37;;;;;;;;;;5054970;28;20454;-72
2023/03/26 13:10:17;;;;;;;10.77;2.00;;;;;;;;;;5062996;28;20520;-72
2023/03/26 13:12:52;;;;;;;8.97;2.10;;;;;;;;;;5027266;28;20480;-73
2023/03/26 13:15:27;;;;;;;11.03;2.00;;;;;;;;;;5056533;28;20462;-72
2023/03/26 13:18:08;;;;;;;10.35;2.03;;;;;;;;;;5070620;28;20548;-72
2023/03/26 13:20:48;;;;;;;7.67;1.93;;;;;;;;;;5056896;28;20199;-72
2023/03/26 13:23:41;;;;;;;9.27;2.30;;;;;;;;;;5070720;28;20778;-73
2023/03/26 13:26:20;;;;;;;10.87;1.87;;;;;;;;;;5073059;28;20449;-73
2023/03/26 13:28:55;;;;;;;8.97;2.07;;;;;;;;;;5068416;28;20567;-72
2023/03/26 13:31:31;;;;;;;14.00;2.73;;;;;;;;;;5055792;28;20489;-72
2023/03/26 13:34:08;;;;;;;13.00;2.30;;;;;;;;;;5033114;28;20724;-71
2023/03/26 13:36:48;;;;;;;9.77;2.23;;;;;;;;;;5051104;28;20452;-72
2023/03/26 13:39:51;;;;;;;8.30;2.30;;;;;;;;;;5045975;28;20453;-72
2023/03/26 13:42:39;;;;;;;8.50;2.80;;;;;;;;;;5039403;28;20446;-72
2023/03/26 13:45:31;;;;;;;6.67;2.20;;;;;;;;;;5044425;28;20199;-72
2023/03/26 13:51:23;;;;;;;9.40;1.90;;;;;;;;;;5040930;28;20375;-72
2023/03/26 13:53:57;;;;;;;7.43;1.53;;;;;;;;;;5053129;28;20460;-72
2023/03/26 13:56:45;;;;;;;5.55;1.70;;;;;;;;;;5063698;28;20513;-72
2023/03/26 14:02:15;;;;;;;4.67;1.90;;;;;;;;;;5063486;28;20452;-72
2023/03/26 14:05:06;;;;;;;13.23;4.80;;;;;;;;;;5058771;28;20759;-73
2023/03/26 14:07:46;;;;;;;6.87;2.63;;;;;;;;;;5071093;28;20453;-72
2023/03/26 14:10:20;;;;;;;13.20;2.83;;;;;;;;;;5067227;28;20578;-72
2023/03/26 14:16:02;;;;;;;7.32;1.70;;;;;;;;;;5065554;28;20476;-73
2023/03/26 14:18:52;;;;;;;7.33;1.10;;;;;;;;;;5056521;28;20365;-73
2023/03/26 14:24:12;;;;;;;7.87;2.00;;;;;;;;;;5066575;28;20468;-72
2023/03/26 14:27:14;;;;;;;;;;;;;;;;;;;;;
2023/03/26 14:29:52;;;;;;;7.10;2.23;;;;;;;;;;5051176;28;20470;-72
2023/03/26 14:32:46;;;;;;;9.10;2.50;;;;;;;;;;5059828;28;20531;-72
2023/03/26 14:35:32;;;;;;;8.80;3.27;;;;;;;;;;5074432;28;20460;-73
2023/03/26 14:38:15;;;;;;;9.60;1.90;;;;;;;;;;5072678;28;20467;-71
2023/03/26 14:40:52;;;;;;;7.55;2.53;;;;;;;;;;5064992;28;20581;-71
2023/03/26 14:43:37;;;;;;;6.17;2.00;;;;;;;;;;5073733;28;20484;-72
2023/03/26 14:46:12;;;;;;;4.93;1.30;;;;;;;;;;5058791;28;20557;-72
2023/03/26 14:49:13;;;;;;;11.30;2.60;;;;;;;;;;5058177;28;20523;-72
2023/03/26 14:52:04;;;;;;;8.93;2.00;;;;;;;;;;4992944;28;20945;-72
2023/03/26 14:54:38;;;;;;;12.82;3.10;;;;;;;;;;4994037;28;20456;-72
2023/03/26 14:57:26;;;;;;;8.83;2.47;;;;;;;;;;5048229;28;20202;-72
2023/03/26 15:00:14;;;;;;;8.00;2.17;;;;;;;;;;5073224;28;20477;-70
2023/03/26 15:03:17;;;;;;;6.07;1.75;;;;;;;;;;5073525;28;20492;-71
2023/03/26 15:06:09;;;;;;;9.17;2.30;;;;;;;;;;5071869;28;20216;-72
2023/03/26 15:09:11;;;;;;;10.40;2.23;;;;;;;;;;5058503;28;20454;-73
2023/03/26 15:11:47;;;;;;;9.57;1.80;;;;;;;;;;5069925;28;20511;-71
2023/03/26 15:14:29;;;;;;;13.47;3.63;;;;;;;;;;5073981;28;20453;-72
2023/03/26 15:17:23;;;;;;;9.07;3.17;;;;;;;;;;5073205;28;20456;-72
2023/03/26 15:20:11;;;;;;;9.30;1.80;;;;;;;;;;5075116;28;20484;-71
2023/03/26 15:22:54;;;;;;;11.57;3.80;;;;;;;;;;5074136;28;20919;-72
2023/03/26 15:25:43;;;;;;;7.18;1.90;;;;;;;;;;5051463;28;20468;-73
2023/03/26 15:28:36;;;;;;;9.55;3.15;;;;;;;;;;5054151;28;20247;-71
2023/03/26 15:31:09;;;;;;;6.20;2.00;;;;;;;;;;5053775;28;20705;-72
2023/03/26 15:34:02;;;;;;;10.10;3.20;;;;;;;;;;5055613;28;20960;-72
2023/03/26 15:36:46;;;;;;;8.50;1.67;;;;;;;;;;5035153;28;20489;-72
2023/03/26 15:39:43;;;;;;;10.83;1.67;;;;;;;;;;5033600;28;20262;-72
2023/03/26 15:42:19;;;;;;;9.23;2.03;;;;;;;;;;5034865;28;20434;-72
2023/03/26 15:45:05;;;;;;;10.33;2.73;;;;;;;;;;5034341;28;20977;-72
2023/03/26 15:47:44;;;;;;;5.97;1.87;;;;;;;;;;5034296;28;20454;-72
2023/03/26 15:53:34;;;;;;;7.10;1.80;;;;;;;;;;5022623;28;20235;-72
2023/03/26 15:56:13;;;;;;;6.30;1.98;;;;;;;;;;5035311;28;20458;-71
2023/03/26 15:59:00;;;;;;;5.37;2.23;;;;;;;;;;5042010;28;20203;-71
2023/03/26 16:01:32;;;;;;;9.50;2.07;;;;;;;;;;5034236;28;20465;-71
2023/03/26 16:04:05;;;;;;;6.37;1.60;;;;;;;;;;5044879;28;20473;-71
2023/03/26 16:06:40;;;;;;;7.05;1.70;;;;;;;;;;5053462;28;20877;-71
2023/03/26 16:09:22;;;;;;;5.90;1.53;;;;;;;;;;5053387;28;20233;-71
2023/03/26 16:11:53;;;;;;;9.73;1.95;;;;;;;;;;5052414;28;20485;-70
2023/03/26 16:14:49;;;;;;;11.00;2.50;;;;;;;;;;5054005;28;20269;-70
2023/03/26 16:17:20;;;;;;;5.93;1.80;;;;;;;;;;5052398;28;20911;-71
2023/03/26 16:19:52;;;;;;;7.50;1.40;;;;;;;;;;5039386;28;20501;-72
2023/03/26 16:22:42;;;;;;;6.10;1.90;;;;;;;;;;5035643;28;20524;-71
2023/03/26 16:25:23;;;;;;;13.30;1.93;;;;;;;;;;5033997;28;20447;-71
2023/03/26 16:28:07;;;;;;;7.17;2.00;;;;;;;;;;5033024;28;20460;-71